Time;durP1;ratioP1;P1;durP2;ratioP2;P2;SDS_P1;SDS_P2;PMS_P1;PMS_P2;Temp;Humidity;BMP_temperature;BMP_pressure;BME280_temperature;BME280_humidity;BME280_pressure;Samples;Min_cycle;Max_cycle;Signal;HPM_P1;HPM_P2
2021/09/22 16:03:30;;;;;;;20.10;7.20;;;;;;;11.26;63.15;99415.59;113148;1195;111041;-76
2021/09/22 16:05:59;;;;;;;21.10;7.00;;;;;;;11.24;63.12;99413.07;112968;1195;95028;-78
2021/09/22 16:08:27;;;;;;;19.40;6.50;;;;;;;11.23;63.16;99417.95;113084;1195;107466;-75
2021/09/22 16:10:55;;;;;;;18.80;6.60;;;;;;;11.21;63.14;99419.89;113084;1194;97689;-77
2021/09/22 16:13:23;;;;;;;17.90;7.10;;;;;;;11.18;63.30;99423.09;113050;1179;95727;-77
2021/09/22 16:15:55;;;;;;;17.50;6.30;;;;;;;11.16;63.16;99430.13;112988;1196;111155;-83
2021/09/22 16:18:23;;;;;;;17.90;6.10;;;;;;;11.13;63.21;99428.35;113052;1195;95948;-80
2021/09/22 16:20:51;;;;;;;17.00;6.80;;;;;;;11.13;63.37;99425.59;112977;1196;107474;-82
2021/09/22 16:23:19;;;;;;;19.70;6.90;;;;;;;11.14;63.47;99425.84;113237;1195;97685;-78
2021/09/22 16:25:47;;;;;;;21.80;7.60;;;;;;;11.15;63.39;99425.39;113211;1196;97631;-72
2021/09/22 16:28:14;;;;;;;16.90;6.70;;;;;;;11.14;63.32;99429.76;113040;1195;111296;-79
2021/09/22 16:30:42;;;;;;;17.60;6.80;;;;;;;11.08;63.11;99424.85;113307;1196;97534;-74
2021/09/22 16:33:11;;;;;;;16.40;7.00;;;;;;;11.02;63.21;99426.28;113049;1195;107772;-73
2021/09/22 16:35:39;;;;;;;15.70;6.10;;;;;;;10.94;63.10;99423.64;113105;1195;97652;-75
2021/09/22 16:38:07;;;;;;;17.00;6.20;;;;;;;10.88;63.27;99426.19;113142;1195;97575;-75
2021/09/22 16:40:35;;;;;;;16.20;6.00;;;;;;;10.81;63.16;99427.88;113074;1195;111141;-76
2021/09/22 16:43:03;;;;;;;24.90;6.60;;;;;;;10.72;63.21;99430.08;113141;1195;97569;-74
2021/09/22 16:45:32;;;;;;;20.40;7.10;;;;;;;10.66;63.30;99432.77;113116;1195;107496;-74
2021/09/22 16:48:00;;;;;;;20.00;7.40;;;;;;;10.61;63.29;99435.09;113139;1195;98226;-72
2021/09/22 16:50:29;;;;;;;19.70;6.70;;;;;;;10.58;63.28;99435.48;113089;1195;97675;-71
2021/09/22 16:52:58;;;;;;;19.00;6.60;;;;;;;10.53;63.39;99435.07;112832;1196;111021;-73
2021/09/22 16:55:25;;;;;;;17.90;7.00;;;;;;;10.48;63.48;99434.70;112915;1195;97681;-69
2021/09/22 16:57:53;;;;;;;20.20;7.10;;;;;;;10.44;63.46;99436.77;112996;1195;107323;-72
2021/09/22 17:00:21;;;;;;;21.50;8.20;;;;;;;10.39;63.53;99442.02;112937;1195;97576;-69
2021/09/22 17:02:49;;;;;;;18.90;6.70;;;;;;;10.35;63.43;99444.21;112743;1196;97603;-72
2021/09/22 17:05:17;;;;;;;18.90;7.10;;;;;;;10.31;63.52;99443.59;112920;1195;111152;-72
2021/09/22 17:07:58;;;;;;;19.60;7.10;;;;;;;10.27;63.55;99443.31;112901;1181;97689;-72
2021/09/22 17:10:32;;;;;;;;;;;;;;;10.25;63.60;99449.85;112989;1195;107724;-75
2021/09/22 17:13:06;;;;;;;19.80;8.40;;;;;;;10.20;63.80;99455.29;112746;1196;97699;-75
2021/09/22 17:15:35;;;;;;;24.60;10.00;;;;;;;10.18;63.67;99454.69;112996;1195;97740;-76
2021/09/22 17:18:05;;;;;;;22.70;9.70;;;;;;;10.16;63.62;99453.23;113121;1187;111207;-75
2021/09/22 17:20:35;;;;;;;26.40;9.20;;;;;;;10.15;63.63;99452.25;112877;1195;97568;-74
2021/09/22 17:23:03;;;;;;;18.00;7.40;;;;;;;10.12;63.76;99452.05;113006;1195;108204;-76
2021/09/22 17:25:34;;;;;;;22.10;8.30;;;;;;;10.08;63.82;99449.98;112760;1195;97645;-76
2021/09/22 17:28:03;;;;;;;19.40;7.40;;;;;;;10.05;63.65;99453.38;112681;1195;97735;-74
2021/09/22 17:30:31;;;;;;;15.30;6.10;;;;;;;10.03;63.73;99456.17;112864;1195;111281;-74
2021/09/22 17:32:59;;;;;;;17.90;7.00;;;;;;;10.02;63.76;99454.48;112664;1195;97586;-76
2021/09/22 17:35:27;;;;;;;20.20;7.80;;;;;;;10.01;63.80;99455.94;112629;1195;107398;-76
2021/09/22 17:37:56;;;;;;;17.60;7.40;;;;;;;10.01;63.81;99454.55;112891;1195;97973;-74
2021/09/22 17:40:25;;;;;;;19.60;8.10;;;;;;;10.00;63.86;99459.55;113080;1195;97599;-74
2021/09/22 17:42:53;;;;;;;18.80;7.60;;;;;;;9.99;63.97;99460.16;113036;1195;110359;-75
2021/09/22 17:45:21;;;;;;;16.80;6.30;;;;;;;9.95;63.86;99459.33;113071;1195;96121;-73
2021/09/22 17:47:53;;;;;;;20.40;7.90;;;;;;;9.94;63.90;99462.23;113114;1195;107639;-73
2021/09/22 17:50:24;;;;;;;23.90;9.00;;;;;;;9.92;63.86;99460.59;112927;1196;98116;-73
2021/09/22 17:52:53;;;;;;;28.40;11.20;;;;;;;9.91;63.97;99462.44;114430;1194;95765;-71
2021/09/22 17:55:21;;;;;;;28.60;11.30;;;;;;;9.90;63.86;99462.87;112998;1187;110208;-71
2021/09/22 17:57:49;;;;;;;32.00;11.50;;;;;;;9.91;64.00;99462.81;112969;1196;97685;-72
2021/09/22 18:00:19;;;;;;;30.40;11.60;;;;;;;9.89;64.04;99464.52;112716;1195;107494;-74
2021/09/22 18:02:49;;;;;;;23.50;9.30;;;;;;;9.86;63.99;99467.70;112896;1196;98028;-71
2021/09/22 18:05:22;;;;;;;20.50;8.80;;;;;;;9.84;64.13;99465.17;112996;1195;97591;-73
2021/09/22 18:07:52;;;;;;;22.10;8.60;;;;;;;9.83;64.05;99463.83;112798;1196;111217;-72
2021/09/22 18:10:20;;;;;;;22.50;8.60;;;;;;;9.83;64.18;99455.33;112772;1195;97642;-73
2021/09/22 18:12:48;;;;;;;20.90;8.10;;;;;;;9.83;64.17;99459.02;112880;1195;106468;-75
2021/09/22 18:15:16;;;;;;;20.40;8.60;;;;;;;9.82;64.24;99458.19;112582;1196;97617;-71
2021/09/22 18:17:44;;;;;;;17.70;7.80;;;;;;;9.83;64.25;99455.15;112851;1195;98398;-74
2021/09/22 18:20:13;;;;;;;18.70;7.00;;;;;;;9.82;64.27;99460.67;113141;1195;110905;-73
2021/09/22 18:22:41;;;;;;;22.20;8.10;;;;;;;9.82;64.30;99458.76;112899;1195;96247;-72
2021/09/22 18:25:13;;;;;;;21.20;7.80;;;;;;;9.79;64.36;99463.68;112972;1195;107249;-73
2021/09/22 18:27:47;;;;;;;22.00;8.70;;;;;;;9.77;64.34;99457.09;112997;1195;96008;-74
2021/09/22 18:30:16;;;;;;;23.60;10.10;;;;;;;9.74;64.41;99462.84;112953;1195;97751;-71
2021/09/22 18:32:47;;;;;;;23.40;9.00;;;;;;;9.71;64.44;99459.64;112720;1196;111775;-75
2021/09/22 18:35:18;;;;;;;24.30;11.00;;;;;;;9.69;64.50;99457.43;112931;1195;98011;-74
2021/09/22 18:37:47;;;;;;;22.80;8.90;;;;;;;9.66;64.68;99457.96;112994;1196;108206;-70
2021/09/22 18:40:17;;;;;;;21.90;8.70;;;;;;;9.64;64.49;99461.29;112897;1195;95969;-70
2021/09/22 18:42:46;;;;;;;21.50;9.10;;;;;;;9.63;64.51;99459.40;112946;1196;97624;-68
2021/09/22 18:45:15;;;;;;;21.20;8.80;;;;;;;9.63;64.64;99452.70;112796;1195;111626;-70
2021/09/22 18:47:43;;;;;;;21.70;8.50;;;;;;;9.63;64.58;99447.02;112998;1196;97599;-73
2021/09/22 18:50:14;;;;;;;21.50;8.00;;;;;;;9.63;64.64;99445.25;112947;1195;106490;-72
2021/09/22 18:52:45;;;;;;;20.50;9.30;;;;;;;9.63;64.60;99446.14;112989;1195;97664;-74
2021/09/22 18:55:14;;;;;;;23.70;10.10;;;;;;;9.62;64.79;99444.95;112931;1195;97589;-73
2021/09/22 18:57:46;;;;;;;26.20;10.00;;;;;;;9.60;64.91;99442.77;112916;1195;111708;-71
2021/09/22 19:00:16;;;;;;;29.00;11.90;;;;;;;9.58;64.85;99445.06;113151;1195;96900;-70
2021/09/22 19:02:46;;;;;;;28.70;12.50;;;;;;;9.57;64.91;99442.80;113072;1195;107718;-71
2021/09/22 19:05:17;;;;;;;30.40;12.80;;;;;;;9.57;64.90;99445.98;113056;1195;97574;-70
2021/09/22 19:07:45;;;;;;;31.30;13.40;;;;;;;9.57;64.91;99445.67;113070;1195;96030;-71
2021/09/22 19:10:13;;;;;;;30.60;13.00;;;;;;;9.53;64.91;99447.83;113043;1195;111207;-70
2021/09/22 19:12:41;;;;;;;27.60;12.80;;;;;;;9.50;65.04;99446.60;112833;1195;95411;-70
2021/09/22 19:15:13;;;;;;;32.20;13.10;;;;;;;9.46;64.94;99448.21;112839;1196;106589;-68
2021/09/22 19:17:43;;;;;;;33.40;14.20;;;;;;;9.44;64.95;99447.81;112856;1195;95791;-71
2021/09/22 19:20:15;;;;;;;28.90;12.70;;;;;;;9.44;65.04;99448.91;113045;1196;97709;-73
2021/09/22 19:22:42;;;;;;;41.50;18.10;;;;;;;9.43;65.31;99449.83;112911;1195;111193;-71
2021/09/22 19:25:15;;;;;;;32.00;13.40;;;;;;;9.38;65.24;99450.30;112897;1195;96075;-71
2021/09/22 19:27:43;;;;;;;27.10;10.80;;;;;;;9.35;65.16;99448.36;113073;1195;107300;-69
2021/09/22 19:30:11;;;;;;;24.50;10.00;;;;;;;9.33;65.31;99442.87;114628;1195;95565;-70
2021/09/22 19:32:40;;;;;;;20.40;8.50;;;;;;;9.30;65.26;99445.16;114873;1195;95495;-71
2021/09/22 19:35:09;;;;;;;23.50;8.90;;;;;;;9.31;65.13;99442.64;114657;1195;111284;-72
2021/09/22 19:37:37;;;;;;;26.90;9.40;;;;;;;9.31;65.42;99445.60;113801;1196;98351;-72
2021/09/22 19:40:06;;;;;;;22.80;9.50;;;;;;;9.33;65.26;99440.04;112615;1196;107598;-69
2021/09/22 19:42:33;;;;;;;21.40;9.40;;;;;;;9.33;65.33;99440.71;112724;1195;96143;-72
2021/09/22 19:45:04;;;;;;;23.70;9.50;;;;;;;9.34;65.44;99438.73;112841;1196;97713;-72
2021/09/22 19:47:33;;;;;;;21.70;9.90;;;;;;;9.33;65.47;99440.00;112951;1195;111213;-72
2021/09/22 19:50:06;;;;;;;22.20;9.00;;;;;;;9.31;65.45;99435.70;112761;1195;97700;-70
2021/09/22 19:52:34;;;;;;;22.60;10.70;;;;;;;9.29;65.52;99437.05;112949;1195;107486;-71
2021/09/22 19:55:06;;;;;;;22.70;9.40;;;;;;;9.28;65.60;99436.98;112843;1195;97587;-71
2021/09/22 19:57:34;;;;;;;24.40;9.20;;;;;;;9.28;65.62;99436.96;113053;1195;97634;-71
2021/09/22 20:00:11;;;;;;;23.50;9.60;;;;;;;9.27;65.71;99438.27;112995;1195;111173;-70
2021/09/22 20:02:39;;;;;;;21.80;9.20;;;;;;;9.26;65.70;99436.19;112863;1196;97674;-72
2021/09/22 20:05:11;;;;;;;21.70;9.70;;;;;;;9.24;65.63;99436.68;112971;1195;107529;-71
2021/09/22 20:07:40;;;;;;;21.80;10.10;;;;;;;9.22;65.65;99436.07;112642;1195;97623;-71
2021/09/22 20:10:11;;;;;;;22.70;9.80;;;;;;;9.20;65.97;99436.02;112897;1195;97585;-71
2021/09/22 20:12:39;;;;;;;22.30;9.90;;;;;;;9.19;65.86;99438.39;112840;1195;109745;-71
2021/09/22 20:15:09;;;;;;;21.00;9.20;;;;;;;9.17;65.86;99439.23;113011;1195;97631;-72
2021/09/22 20:17:39;;;;;;;22.10;9.70;;;;;;;9.15;66.04;99440.61;112904;1195;107448;-71
2021/09/22 20:20:10;;;;;;;24.80;9.90;;;;;;;9.14;66.12;99442.23;113046;1195;97668;-70
2021/09/22 20:22:38;;;;;;;22.80;10.90;;;;;;;9.13;66.01;99441.96;113095;1195;97692;-71
2021/09/22 20:25:08;;;;;;;24.60;10.70;;;;;;;9.13;66.06;99439.64;112943;1196;112161;-72
2021/09/22 20:27:44;;;;;;;23.10;9.70;;;;;;;9.11;66.11;99442.05;113075;1195;97689;-71
2021/09/22 20:30:16;;;;;;;24.20;9.70;;;;;;;9.09;66.12;99445.69;113101;1195;106574;-71
2021/09/22 20:32:46;;;;;;;24.10;11.40;;;;;;;9.08;66.15;99444.34;112994;1195;95729;-70
2021/09/22 20:35:14;;;;;;;23.10;10.80;;;;;;;9.08;66.27;99441.34;113138;1195;95123;-71
2021/09/22 20:37:42;;;;;;;24.50;11.40;;;;;;;9.08;66.30;99448.05;112924;1196;111195;-71
2021/09/22 20:40:13;;;;;;;22.70;10.50;;;;;;;9.07;66.53;99446.34;113070;1195;97700;-71
2021/09/22 20:42:41;;;;;;;25.00;11.00;;;;;;;9.05;66.28;99448.23;113041;1195;107536;-71
2021/09/22 20:45:09;;;;;;;23.70;10.50;;;;;;;9.05;66.32;99451.73;112979;1195;98277;-71
2021/09/22 20:47:37;;;;;;;25.50;11.30;;;;;;;9.07;66.46;99449.17;113051;1195;95783;-70
2021/09/22 20:50:10;;;;;;;21.50;10.50;;;;;;;9.08;66.40;99448.42;112911;1195;111884;-71
2021/09/22 20:52:40;;;;;;;23.60;10.80;;;;;;;9.09;66.39;99450.14;112981;1195;97557;-70
2021/09/22 20:55:10;;;;;;;24.70;11.80;;;;;;;9.08;66.52;99450.33;112932;1195;107643;-71
2021/09/22 20:57:40;;;;;;;23.70;10.00;;;;;;;9.06;66.52;99455.94;113039;1195;97544;-70
2021/09/22 21:00:10;;;;;;;23.30;10.30;;;;;;;9.05;66.56;99453.55;113156;1195;98243;-70
2021/09/22 21:02:38;;;;;;;23.70;10.30;;;;;;;9.05;66.65;99456.71;112826;1195;111734;-70
2021/09/22 21:05:09;;;;;;;21.90;10.10;;;;;;;9.05;66.69;99456.89;112869;1195;97533;-72
2021/09/22 21:07:38;;;;;;;23.80;10.70;;;;;;;9.06;66.72;99452.42;112883;1195;107465;-70
2021/09/22 21:10:06;;;;;;;21.60;9.70;;;;;;;9.04;66.65;99448.83;113103;1195;97637;-70
2021/09/22 21:12:34;;;;;;;24.70;10.90;;;;;;;9.04;66.98;99450.79;113031;1195;97616;-71
2021/09/22 21:15:04;;;;;;;23.30;10.50;;;;;;;9.02;66.97;99457.83;113078;1195;112095;-71
2021/09/22 21:17:32;;;;;;;23.40;11.10;;;;;;;8.99;66.79;99456.54;113007;1195;97649;-71
2021/09/22 21:20:00;;;;;;;24.10;10.60;;;;;;;8.98;67.05;99458.56;113030;1195;108088;-69
2021/09/22 21:22:28;;;;;;;25.10;11.00;;;;;;;8.95;67.11;99454.16;113045;1195;97599;-69
2021/09/22 21:24:58;;;;;;;23.70;11.50;;;;;;;8.92;66.99;99456.77;113065;1187;96093;-69
2021/09/22 21:27:25;;;;;;;23.40;10.70;;;;;;;8.92;66.98;99454.14;113030;1195;111738;-70
2021/09/22 21:29:53;;;;;;;24.10;11.20;;;;;;;8.91;66.97;99455.77;113128;1195;96840;-70
2021/09/22 21:32:23;;;;;;;21.90;10.70;;;;;;;8.88;67.07;99457.54;112991;1195;107344;-70
2021/09/22 21:34:53;;;;;;;23.80;11.30;;;;;;;8.87;67.55;99454.65;112801;1196;97684;-70
2021/09/22 21:37:22;;;;;;;22.60;11.30;;;;;;;8.83;67.19;99449.54;113077;1195;96906;-70
2021/09/22 21:39:53;;;;;;;23.00;11.50;;;;;;;8.82;67.32;99452.98;113060;1195;112254;-70
2021/09/22 21:42:22;;;;;;;26.30;11.50;;;;;;;8.81;67.31;99449.69;113080;1197;97710;-70
2021/09/22 21:44:52;;;;;;;22.10;10.80;;;;;;;8.78;67.30;99452.11;113062;1195;107621;-69
2021/09/22 21:47:20;;;;;;;23.70;11.30;;;;;;;8.77;67.42;99453.07;113170;1195;97657;-70
2021/09/22 21:49:48;;;;;;;23.50;11.10;;;;;;;8.78;67.33;99452.85;113151;1195;97687;-69
2021/09/22 21:52:15;;;;;;;24.00;11.60;;;;;;;8.77;67.29;99448.27;113115;1195;111181;-69
2021/09/22 21:54:45;;;;;;;25.00;12.10;;;;;;;8.76;67.54;99451.75;113160;1195;97551;-69
2021/09/22 21:57:13;;;;;;;23.50;10.60;;;;;;;8.73;67.47;99452.30;113081;1194;107538;-69
2021/09/22 21:59:41;;;;;;;22.10;10.80;;;;;;;8.70;67.64;99451.39;112718;1196;98080;-70
2021/09/22 22:02:09;;;;;;;22.00;10.90;;;;;;;8.68;67.56;99451.67;112946;1195;96364;-71
2021/09/22 22:04:38;;;;;;;24.40;11.00;;;;;;;8.67;67.95;99450.85;112785;1196;111197;-71
2021/09/22 22:07:08;;;;;;;25.50;12.50;;;;;;;8.66;67.98;99446.81;112844;1196;95742;-71
2021/09/22 22:09:36;;;;;;;23.90;11.60;;;;;;;8.65;67.67;99448.98;112898;1196;107353;-71
2021/09/22 22:12:06;;;;;;;23.80;11.40;;;;;;;8.67;67.74;99447.88;112889;1195;96120;-70
2021/09/22 22:14:35;;;;;;;24.10;11.80;;;;;;;8.66;67.72;99447.87;112882;1196;97688;-71
2021/09/22 22:17:03;;;;;;;24.20;11.90;;;;;;;8.66;67.95;99450.36;112881;1196;110987;-71
2021/09/22 22:19:33;;;;;;;26.10;12.50;;;;;;;8.64;67.78;99446.04;112879;1196;98415;-72
2021/09/22 22:22:06;;;;;;;19.10;8.70;;;;;;;8.64;67.81;99444.98;112452;1196;107672;-73
2021/09/22 22:24:34;;;;;;;26.30;11.70;;;;;;;8.65;68.02;99442.30;112785;1196;97546;-72
2021/09/22 22:27:02;;;;;;;24.20;11.60;;;;;;;8.63;67.86;99440.47;112783;1195;97575;-73
2021/09/22 22:29:30;;;;;;;23.90;11.00;;;;;;;8.62;67.90;99438.55;112873;1196;111275;-72
2021/09/22 22:31:58;;;;;;;22.40;11.30;;;;;;;8.63;67.97;99437.59;113023;1195;97513;-73
2021/09/22 22:34:26;;;;;;;24.20;11.00;;;;;;;8.65;68.11;99432.21;112763;1196;108281;-71
2021/09/22 22:36:56;;;;;;;22.40;10.90;;;;;;;8.64;67.95;99433.68;112999;1196;97562;-72
2021/09/22 22:39:26;;;;;;;24.30;11.60;;;;;;;8.65;68.10;99434.16;112961;1196;95734;-73
2021/09/22 22:41:54;;;;;;;24.20;11.30;;;;;;;8.64;68.05;99435.80;112773;1196;111531;-72
2021/09/22 22:44:24;;;;;;;22.70;11.20;;;;;;;8.66;68.14;99431.11;112867;1197;96044;-70
2021/09/22 22:46:52;;;;;;;23.50;11.00;;;;;;;8.67;68.25;99438.48;112941;1196;106448;-72
2021/09/22 22:49:22;;;;;;;24.30;11.80;;;;;;;8.66;68.07;99445.42;112914;1196;97843;-71
2021/09/22 22:51:55;;;;;;;25.30;11.80;;;;;;;8.65;68.17;99441.94;112996;1196;97671;-70
2021/09/22 22:54:30;;;;;;;25.30;11.50;;;;;;;8.66;68.21;99445.62;113037;1196;111055;-71
2021/09/22 22:56:58;;;;;;;27.30;12.50;;;;;;;8.64;68.23;99441.97;112878;1195;97586;-71
2021/09/22 22:59:26;;;;;;;24.70;11.20;;;;;;;8.63;68.32;99441.69;112700;1195;107587;-70
2021/09/22 23:01:54;;;;;;;24.20;11.20;;;;;;;8.64;68.49;99445.35;112770;1195;96561;-70
2021/09/22 23:04:23;;;;;;;23.50;11.50;;;;;;;8.63;68.40;99448.73;112469;1196;95731;-71
2021/09/22 23:06:51;;;;;;;24.50;11.20;;;;;;;8.62;68.46;99445.30;112860;1195;110215;-69
2021/09/22 23:09:19;;;;;;;24.90;11.70;;;;;;;8.61;68.56;99444.46;112923;1195;95732;-70
2021/09/22 23:11:47;;;;;;;23.60;10.70;;;;;;;8.60;68.91;99444.52;112928;1195;107619;-69
2021/09/22 23:14:16;;;;;;;21.70;10.50;;;;;;;8.58;68.84;99443.59;112994;1196;97618;-70
2021/09/22 23:16:49;;;;;;;26.20;11.90;;;;;;;8.56;68.60;99441.92;113012;1195;96535;-71
2021/09/22 23:24:32;;;;;;;24.10;11.10;;;;;;;8.55;68.64;99439.36;113090;1195;107583;-71
2021/09/22 23:27:00;;;;;;;23.70;10.90;;;;;;;8.53;68.72;99435.41;113043;1195;98756;-71
2021/09/22 23:29:28;;;;;;;25.70;11.30;;;;;;;8.50;68.77;99438.38;113055;1195;97633;-71
2021/09/22 23:31:56;;;;;;;24.30;10.80;;;;;;;8.48;68.64;99441.13;113082;1195;111256;-70
2021/09/22 23:34:23;;;;;;;24.00;11.40;;;;;;;8.46;68.79;99445.81;113001;1195;97637;-70
2021/09/22 23:36:51;;;;;;;21.40;9.80;;;;;;;8.42;68.90;99447.67;112769;1196;107507;-69
2021/09/22 23:39:19;;;;;;;26.70;12.10;;;;;;;8.37;68.97;99446.71;112976;1195;98779;-71
2021/09/22 23:41:47;;;;;;;22.70;11.20;;;;;;;8.32;69.01;99445.05;113099;1195;97543;-70
2021/09/22 23:44:15;;;;;;;21.90;10.50;;;;;;;8.27;69.01;99439.64;112677;1196;111297;-70
2021/09/22 23:46:43;;;;;;;23.60;12.00;;;;;;;8.23;68.89;99437.75;113099;1195;97662;-71
2021/09/22 23:49:10;;;;;;;24.60;11.20;;;;;;;8.22;68.89;99440.84;112797;1196;107391;-69
2021/09/22 23:51:38;;;;;;;24.40;11.90;;;;;;;8.19;69.12;99444.13;112722;1196;98789;-69
2021/09/22 23:54:06;;;;;;;25.60;11.90;;;;;;;8.16;69.23;99446.48;112907;1195;95759;-71
2021/09/22 23:56:34;;;;;;;24.10;11.00;;;;;;;8.15;69.30;99448.09;112804;1195;111244;-71
2021/09/22 23:59:02;;;;;;;25.80;13.00;;;;;;;8.15;69.26;99444.06;112886;1195;97557;-71
